Time;durP1;ratioP1;P1;durP2;ratioP2;P2;SDS_P1;SDS_P2;PMS_P1;PMS_P2;Temp;Humidity;BMP_temperature;BMP_pressure;BME280_temperature;BME280_humidity;BME280_pressure;Samples;Min_cycle;Max_cycle;Signal;HPM_P1;HPM_P2
2022/06/09 00:01:49;;;;;;;;;28.00;26.33;;;;;22.46;59.10;100220.15;110731;1258;19540;-48
2022/06/09 00:04:16;;;;;;;;;27.00;24.00;;;;;22.53;59.09;100220.05;110763;1258;23152;-47
2022/06/09 00:06:44;;;;;;;;;27.00;26.00;;;;;22.57;58.96;100223.14;110775;1258;25950;-48
2022/06/09 00:09:11;;;;;;;;;29.67;27.00;;;;;22.51;59.04;100223.95;110779;1258;20767;-49
2022/06/09 00:11:38;;;;;;;;;26.50;25.50;;;;;22.49;59.04;100224.79;110764;1258;20902;-48
2022/06/09 00:14:06;;;;;;;;;30.00;27.00;;;;;22.50;59.14;100224.41;110780;1258;19194;-48
2022/06/09 00:16:34;;;;;;;;;29.67;27.00;;;;;22.51;59.25;100230.13;110779;1258;19688;-48
2022/06/09 00:19:01;;;;;;;;;31.67;26.67;;;;;22.55;59.00;100225.91;110744;1258;20399;-48
2022/06/09 00:21:28;;;;;;;;;23.33;23.00;;;;;22.46;59.31;100229.85;110787;1258;19301;-50
2022/06/09 00:23:56;;;;;;;;;24.00;23.33;;;;;22.40;59.38;100225.64;110776;1258;20922;-48
2022/06/09 00:26:23;;;;;;;;;28.33;27.67;;;;;22.37;59.72;100226.14;110752;1258;20362;-52
2022/06/09 00:28:50;;;;;;;;;29.33;26.33;;;;;22.33;59.81;100227.66;110750;1258;19285;-48
2022/06/09 00:31:17;;;;;;;;;29.00;27.00;;;;;22.38;59.87;100227.48;110739;1258;23291;-48
2022/06/09 00:33:45;;;;;;;;;31.33;27.00;;;;;22.48;59.67;100226.33;110780;1258;20642;-48
2022/06/09 00:36:12;;;;;;;;;30.00;26.67;;;;;22.50;59.63;100229.58;110796;1258;19362;-48
2022/06/09 00:38:39;;;;;;;;;30.33;28.33;;;;;22.50;59.47;100225.72;110796;1258;19628;-48
2022/06/09 00:41:06;;;;;;;;;30.67;27.33;;;;;22.49;59.41;100228.93;110757;1258;20558;-48
2022/06/09 00:43:34;;;;;;;;;30.33;27.00;;;;;22.46;59.74;100225.94;110753;1257;19282;-47
2022/06/09 00:46:01;;;;;;;;;27.50;27.00;;;;;22.51;59.51;100231.39;110731;1258;19570;-49
2022/06/09 00:48:28;;;;;;;;;25.50;25.50;;;;;22.53;59.51;100229.47;110757;1258;21693;-50
2022/06/09 00:50:56;;;;;;;;;27.00;25.00;;;;;22.53;59.42;100229.22;110837;1258;19274;-48
2022/06/09 00:53:24;;;;;;;;;28.00;26.00;;;;;22.53;59.61;100233.27;110771;1258;19623;-49
2022/06/09 00:55:51;;;;;;;;;30.67;27.00;;;;;22.55;59.52;100231.34;110762;1258;20266;-48
2022/06/09 00:58:18;;;;;;;;;30.33;27.33;;;;;22.56;59.56;100226.89;110766;1258;19178;-47
2022/06/09 01:00:46;;;;;;;;;27.00;26.00;;;;;22.54;59.58;100222.63;110728;1258;19636;-47
2022/06/09 01:03:13;;;;;;;;;26.33;25.67;;;;;22.53;59.59;100217.67;110797;1258;20342;-49
2022/06/09 01:05:41;;;;;;;;;28.33;26.67;;;;;22.58;59.48;100221.73;110754;1258;20615;-47
2022/06/09 01:08:08;;;;;;;;;27.33;24.00;;;;;22.56;59.50;100223.02;110761;1258;19865;-50
2022/06/09 01:10:35;;;;;;;;;32.00;31.00;;;;;22.60;59.50;100220.36;110749;1258;21732;-49
2022/06/09 01:13:03;;;;;;;;;30.00;26.50;;;;;22.63;59.62;100217.89;110747;1258;19349;-48
2022/06/09 01:15:30;;;;;;;;;27.50;25.00;;;;;22.61;59.54;100225.44;110782;1258;19552;-48
2022/06/09 01:17:57;;;;;;;;;29.50;28.50;;;;;22.56;59.68;100228.11;110622;1258;23217;-49
2022/06/09 01:20:25;;;;;;;;;27.67;27.00;;;;;22.61;59.79;100228.01;110744;1258;19221;-47
2022/06/09 01:22:52;;;;;;;;;28.00;25.33;;;;;22.60;59.70;100220.73;110755;1258;23725;-48
2022/06/09 01:25:19;;;;;;;;;23.00;23.00;;;;;22.56;59.87;100222.93;110766;1258;22130;-49
2022/06/09 01:27:46;;;;;;;;;27.67;27.33;;;;;22.52;59.93;100222.45;110768;1258;19781;-47
2022/06/09 01:30:14;;;;;;;;;27.00;24.50;;;;;22.50;60.23;100227.30;110825;1258;23327;-48
2022/06/09 01:32:41;;;;;;;;;27.33;27.00;;;;;22.56;60.10;100224.15;110799;1258;23581;-49
2022/06/09 01:35:08;;;;;;;;;24.00;23.00;;;;;22.51;60.22;100229.71;110786;1258;19239;-49
2022/06/09 01:37:36;;;;;;;;;30.67;28.00;;;;;22.47;60.54;100231.38;110756;1258;19560;-48
2022/06/09 01:40:03;;;;;;;;;29.50;27.00;;;;;22.39;60.93;100227.02;110756;1258;20310;-48
2022/06/09 01:42:30;;;;;;;;;27.33;26.00;;;;;22.36;60.91;100227.73;110805;1257;20708;-49
2022/06/09 01:44:58;;;;;;;;;28.00;25.00;;;;;22.35;61.17;100221.59;110798;1258;19667;-48
2022/06/09 01:47:25;;;;;;;;;27.67;25.67;;;;;22.28;61.41;100220.70;110750;1258;22921;-47
2022/06/09 01:49:52;;;;;;;;;31.00;29.00;;;;;22.19;61.83;100223.74;110740;1257;19265;-48
2022/06/09 01:52:20;;;;;;;;;30.00;29.00;;;;;22.18;61.88;100226.84;110781;1258;19567;-48
2022/06/09 01:54:47;;;;;;;;;31.00;29.00;;;;;22.21;62.03;100223.26;110721;1258;24033;-48
2022/06/09 01:57:14;;;;;;;;;30.33;27.00;;;;;22.19;62.07;100223.70;110795;1258;19284;-49
2022/06/09 01:59:42;;;;;;;;;33.00;27.00;;;;;22.13;62.19;100216.81;110738;1258;19837;-47
2022/06/09 02:02:09;;;;;;;;;24.33;22.33;;;;;22.12;62.38;100218.64;110777;1258;20302;-49
2022/06/09 02:04:36;;;;;;;;;26.00;25.50;;;;;22.08;62.50;100218.69;110727;1258;19243;-48
2022/06/09 02:07:03;;;;;;;;;30.00;26.33;;;;;22.13;62.50;100219.02;110773;1258;19674;-48
2022/06/09 02:09:31;;;;;;;;;29.33;24.33;;;;;22.20;62.35;100216.73;110789;1258;20362;-49
2022/06/09 02:11:58;;;;;;;;;30.67;26.00;;;;;22.17;62.35;100210.04;110762;1258;19171;-50
2022/06/09 02:14:26;;;;;;;;;29.33;26.00;;;;;22.14;62.45;100210.52;110731;1258;19731;-48
2022/06/09 02:16:53;;;;;;;;;28.00;25.00;;;;;22.21;62.49;100210.15;110746;1258;20497;-48
2022/06/09 02:19:21;;;;;;;;;28.50;25.50;;;;;22.22;62.49;100208.30;110731;1258;19406;-49
2022/06/09 02:21:49;;;;;;;;;25.67;25.67;;;;;22.17;62.55;100209.44;110765;1258;22313;-48
2022/06/09 02:24:16;;;;;;;;;28.67;27.67;;;;;22.16;62.73;100213.17;110811;1258;20289;-48
2022/06/09 02:26:43;;;;;;;;;25.00;24.67;;;;;22.17;62.65;100214.83;110771;1258;19337;-49
2022/06/09 02:29:11;;;;;;;;;32.00;30.33;;;;;22.13;62.80;100211.48;110780;1258;23093;-47
2022/06/09 02:31:38;;;;;;;;;32.67;30.33;;;;;22.12;62.85;100208.64;110775;1258;20397;-48
2022/06/09 02:34:05;;;;;;;;;31.00;29.33;;;;;22.06;63.05;100203.54;110770;1258;19247;-48
2022/06/09 02:36:32;;;;;;;;;28.67;24.67;;;;;22.03;63.08;100199.36;110761;1258;21068;-47
2022/06/09 02:39:00;;;;;;;;;34.33;30.67;;;;;22.13;62.96;100199.09;110778;1258;20574;-50
2022/06/09 02:41:27;;;;;;;;;32.00;30.00;;;;;22.09;63.14;100197.15;110771;1258;19312;-47
2022/06/09 02:43:54;;;;;;;;;25.33;23.00;;;;;22.06;63.24;100198.29;110771;1258;23305;-47
2022/06/09 02:46:21;;;;;;;;;26.00;25.00;;;;;22.06;63.23;100189.02;110757;1258;20272;-48
2022/06/09 02:48:49;;;;;;;;;30.33;27.00;;;;;22.13;62.99;100191.90;110752;1258;23075;-48
2022/06/09 02:51:17;;;;;;;;;28.33;26.00;;;;;22.09;63.21;100190.90;110801;1258;25887;-48
2022/06/09 02:53:44;;;;;;;;;32.33;28.33;;;;;22.07;63.20;100190.15;110730;1258;20434;-48
2022/06/09 02:56:11;;;;;;;;;30.33;30.00;;;;;22.08;63.50;100192.65;110795;1258;22895;-48
2022/06/09 02:58:38;;;;;;;;;28.00;27.33;;;;;22.11;63.39;100193.61;110763;1258;19626;-48
2022/06/09 03:01:07;;;;;;;;;30.33;26.67;;;;;22.16;63.28;100193.73;110795;1258;20250;-48
2022/06/09 03:03:34;;;;;;;;;33.00;30.33;;;;;22.17;63.26;100192.70;110809;1258;21109;-47
2022/06/09 03:06:01;;;;;;;;;30.00;26.67;;;;;22.09;63.41;100189.84;110803;1258;19676;-52
2022/06/09 03:08:28;;;;;;;;;32.00;29.67;;;;;22.11;63.38;100188.48;110747;1258;23982;-49
2022/06/09 03:10:56;;;;;;;;;29.00;28.00;;;;;22.16;63.40;100189.74;110758;1258;19268;-47
2022/06/09 03:13:23;;;;;;;;;28.50;28.00;;;;;22.18;63.32;100192.95;110746;1258;19676;-48
2022/06/09 03:15:51;;;;;;;;;23.33;23.00;;;;;22.11;63.54;100192.30;110738;1258;20397;-49
2022/06/09 03:18:18;;;;;;;;;33.00;27.67;;;;;22.09;63.56;100188.63;110777;1258;23215;-48
2022/06/09 03:20:46;;;;;;;;;31.67;24.67;;;;;22.12;63.69;100184.05;110772;1258;21261;-48
2022/06/09 03:23:13;;;;;;;;;29.67;27.33;;;;;22.14;63.54;100186.00;110751;1257;20288;-50
2022/06/09 03:25:41;;;;;;;;;30.50;29.00;;;;;22.11;63.84;100186.73;110769;1258;19211;-48
2022/06/09 03:28:09;;;;;;;;;34.00;28.33;;;;;22.11;63.78;100188.35;110790;1258;22813;-48
2022/06/09 03:30:36;;;;;;;;;33.00;30.00;;;;;22.16;63.76;100187.02;110762;1258;23534;-49
2022/06/09 03:33:03;;;;;;;;;34.00;31.00;;;;;22.12;63.87;100186.77;110787;1258;19437;-49
2022/06/09 03:35:31;;;;;;;;;31.50;30.00;;;;;22.17;63.60;100185.83;110794;1258;20147;-49
2022/06/09 03:37:58;;;;;;;;;31.00;28.50;;;;;22.15;63.97;100186.42;110716;1258;21018;-48
2022/06/09 03:40:25;;;;;;;;;29.33;27.67;;;;;22.10;64.07;100180.80;110772;1258;23135;-47
2022/06/09 03:42:52;;;;;;;;;27.50;26.00;;;;;22.15;64.00;100185.33;110757;1258;22399;-47
2022/06/09 03:45:21;;;;;;;;;30.50;30.00;;;;;22.14;64.09;100175.21;110770;1258;23122;-49
2022/06/09 03:47:48;;;;;;;;;32.67;30.00;;;;;22.24;63.70;100173.01;110749;1258;22311;-47
2022/06/09 03:50:15;;;;;;;;;33.67;29.67;;;;;22.31;63.60;100169.39;110761;1258;19589;-48
2022/06/09 03:52:42;;;;;;;;;31.67;27.00;;;;;22.28;63.72;100164.84;110742;1258;23196;-48
2022/06/09 03:55:10;;;;;;;;;29.00;27.67;;;;;22.32;63.62;100166.67;110756;1258;19299;-50
2022/06/09 03:57:37;;;;;;;;;29.33;26.33;;;;;22.41;63.44;100171.30;110758;1258;19729;-48
2022/06/09 04:00:04;;;;;;;;;28.67;27.00;;;;;22.38;63.50;100174.85;110762;1258;20330;-51
2022/06/09 04:02:32;;;;;;;;;30.00;27.33;;;;;22.31;63.84;100176.65;110451;1260;23130;-48
2022/06/09 04:04:59;;;;;;;;;29.67;27.33;;;;;22.27;64.11;100182.51;110748;1258;19529;-48
2022/06/09 04:07:26;;;;;;;;;29.50;28.00;;;;;22.22;64.43;100186.59;110788;1258;20419;-48
2022/06/09 04:09:54;;;;;;;;;29.67;27.00;;;;;22.24;64.17;100183.17;110770;1258;23007;-49
2022/06/09 04:12:21;;;;;;;;;29.67;25.67;;;;;22.21;64.53;100183.27;110793;1258;23457;-48
2022/06/09 04:14:48;;;;;;;;;33.00;28.33;;;;;22.20;64.57;100186.47;110771;1258;20301;-48
2022/06/09 04:17:15;;;;;;;;;30.33;25.33;;;;;22.20;64.62;100185.45;110765;1258;19237;-48
2022/06/09 04:19:43;;;;;;;;;32.00;30.00;;;;;22.20;64.71;100186.80;110728;1258;23109;-47
2022/06/09 04:22:10;;;;;;;;;28.00;26.33;;;;;22.23;64.76;100187.73;110748;1258;21933;-48
2022/06/09 04:24:37;;;;;;;;;30.33;28.33;;;;;22.23;64.68;100182.52;110768;1258;19357;-48
2022/06/09 04:27:05;;;;;;;;;25.00;23.00;;;;;22.23;64.65;100180.59;110795;1258;19614;-48
2022/06/09 04:29:32;;;;;;;;;29.00;27.67;;;;;22.32;64.49;100178.42;110771;1258;21707;-48
2022/06/09 04:31:59;;;;;;;;;32.33;27.00;;;;;22.28;64.38;100183.19;110750;1258;19190;-47
2022/06/09 04:34:27;;;;;;;;;37.50;31.00;;;;;22.36;64.29;100189.25;110731;1258;23231;-48
2022/06/09 04:36:54;;;;;;;;;25.67;22.33;;;;;22.39;63.94;100192.66;110779;1258;22236;-48
2022/06/09 04:39:24;;;;;;;;;29.67;26.33;;;;;22.35;64.18;100192.30;110793;1258;19302;-48
2022/06/09 04:41:51;;;;;;;;;28.33;26.00;;;;;22.41;64.14;100193.23;110779;1258;21849;-49
2022/06/09 04:44:19;;;;;;;;;26.00;26.00;;;;;22.42;64.08;100196.76;110714;1258;20539;-48
2022/06/09 04:46:46;;;;;;;;;25.33;24.33;;;;;22.44;63.87;100199.88;110739;1258;19323;-49
2022/06/09 04:49:13;;;;;;;;;30.33;26.00;;;;;22.47;63.91;100202.72;110743;1258;22134;-49
2022/06/09 04:51:40;;;;;;;;;26.33;25.67;;;;;22.47;63.98;100199.52;110764;1258;20305;-49
2022/06/09 04:54:08;;;;;;;;;32.67;29.67;;;;;22.43;63.83;100198.31;110794;1258;23595;-48
2022/06/09 04:56:36;;;;;;;;;30.33;28.67;;;;;22.34;64.29;100201.04;110769;1258;19673;-47
2022/06/09 04:59:04;;;;;;;;;29.00;27.00;;;;;22.34;64.40;100206.88;110756;1258;20276;-48
2022/06/09 05:01:31;;;;;;;;;33.33;30.67;;;;;22.32;64.56;100203.50;110733;1258;19234;-47
2022/06/09 05:03:59;;;;;;;;;29.33;26.67;;;;;22.33;64.55;100205.35;110724;1258;23428;-48
2022/06/09 05:06:26;;;;;;;;;30.00;26.67;;;;;22.36;64.52;100210.04;110770;1258;20353;-52
2022/06/09 05:08:54;;;;;;;;;28.00;26.50;;;;;22.44;64.39;100210.64;110723;1258;19291;-48
2022/06/09 05:11:21;;;;;;;;;29.33;26.33;;;;;22.49;64.22;100210.16;110642;1258;19549;-48
2022/06/09 05:13:48;;;;;;;;;32.00;30.00;;;;;22.50;64.30;100210.77;110705;1258;20328;-47
2022/06/09 05:16:16;;;;;;;;;31.33;28.00;;;;;22.51;64.32;100211.02;110720;1258;19221;-48
2022/06/09 05:18:43;;;;;;;;;29.33;28.67;;;;;22.47;64.49;100209.48;110725;1258;19596;-48
2022/06/09 05:21:10;;;;;;;;;32.50;30.00;;;;;22.47;64.41;100217.34;110751;1258;20373;-48
2022/06/09 05:23:38;;;;;;;;;31.00;27.00;;;;;22.45;64.58;100219.05;110721;1258;19232;-47
2022/06/09 05:26:05;;;;;;;;;30.50;30.50;;;;;22.55;64.27;100220.52;110621;1258;19660;-48
2022/06/09 05:28:39;;;;;;;;;37.67;32.67;;;;;22.57;64.55;100216.62;107359;1300;17309;-47
2022/06/09 05:31:06;;;;;;;;;32.00;30.67;;;;;22.48;64.73;100221.05;108610;1277;18806;-48
2022/06/09 05:33:34;;;;;;;;;29.50;27.50;;;;;22.60;64.42;100218.71;108656;1275;21735;-46
2022/06/09 05:36:01;;;;;;;;;33.33;30.00;;;;;22.70;64.02;100220.45;108640;1275;18407;-47
2022/06/09 05:46:50;;;;;;;;;43.00;38.33;;;;;21.96;67.17;100231.71;108929;1274;18800;-49
2022/06/09 05:49:17;;;;;;;;;41.00;35.00;;;;;22.12;66.92;100235.40;109051;1273;19233;-48
2022/06/09 05:51:45;;;;;;;;;41.00;38.00;;;;;22.09;67.06;100239.73;109024;1273;18588;-48
2022/06/09 05:54:12;;;;;;;;;38.67;32.33;;;;;21.67;68.71;100241.73;109133;1274;21723;-49
2022/06/09 05:56:39;;;;;;;;;29.33;26.33;;;;;22.01;67.86;100240.27;109047;1273;18820;-47
2022/06/09 05:59:06;;;;;;;;;32.67;31.00;;;;;22.45;66.42;100247.52;109046;1273;23030;-49
2022/06/09 06:01:34;;;;;;;;;35.00;32.00;;;;;22.81;65.25;100242.02;109067;1273;18595;-47
2022/06/09 06:04:01;;;;;;;;;31.00;27.67;;;;;22.99;64.60;100245.67;109083;1274;18750;-49
2022/06/09 06:06:37;;;;;;;;;29.50;27.00;;;;;23.15;63.99;100249.31;109072;1274;22553;-48
2022/06/09 06:09:04;;;;;;;;;30.50;30.00;;;;;23.36;63.52;100252.34;108930;1274;19196;-47
2022/06/09 06:11:32;;;;;;;;;35.00;32.00;;;;;23.20;63.63;100256.06;109067;1274;18770;-47
2022/06/09 06:13:59;;;;;;;;;31.00;30.00;;;;;22.98;64.24;100253.58;109068;1274;18411;-48
2022/06/09 06:16:26;;;;;;;;;33.33;30.00;;;;;22.69;65.21;100255.88;109059;1274;18589;-47
2022/06/09 06:18:54;;;;;;;;;39.33;34.67;;;;;22.55;65.85;100260.88;109512;1268;18846;-48
2022/06/09 06:21:21;;;;;;;;;33.33;29.33;;;;;22.59;65.76;100261.98;110240;1265;18500;-49
2022/06/09 06:23:48;;;;;;;;;39.00;33.50;;;;;22.58;65.90;100264.54;110242;1264;18656;-48
2022/06/09 06:26:16;;;;;;;;;32.67;29.67;;;;;22.56;66.00;100266.73;110245;1264;18738;-48
2022/06/09 06:28:43;;;;;;;;;35.00;30.33;;;;;22.51;66.22;100263.75;110269;1264;21113;-47
2022/06/09 06:31:10;;;;;;;;;33.00;28.33;;;;;22.39;66.70;100269.01;110295;1264;18513;-47
2022/06/09 06:33:37;;;;;;;;;35.67;31.67;;;;;22.43;66.69;100273.59;110290;1264;18677;-49
2022/06/09 06:36:05;;;;;;;;;34.00;31.00;;;;;22.46;66.77;100273.05;110232;1265;22132;-47
2022/06/09 06:38:33;;;;;;;;;31.50;29.00;;;;;22.47;67.02;100276.73;110128;1264;18648;-48
2022/06/09 06:41:00;;;;;;;;;33.67;31.67;;;;;22.56;66.94;100272.64;110136;1265;21819;-48
2022/06/09 06:43:27;;;;;;;;;32.00;30.00;;;;;22.56;66.86;100275.00;110254;1265;18259;-49
2022/06/09 06:45:54;;;;;;;;;35.33;31.00;;;;;22.46;67.11;100277.40;110233;1264;19721;-45
2022/06/09 06:48:22;;;;;;;;;36.00;31.50;;;;;22.28;67.92;100279.37;110265;1265;21931;-49
2022/06/09 06:50:49;;;;;;;;;35.67;31.33;;;;;22.39;67.81;100282.30;110235;1264;18809;-50
2022/06/09 06:53:16;;;;;;;;;33.00;31.33;;;;;22.34;68.24;100284.08;110285;1265;19109;-49
2022/06/09 06:55:44;;;;;;;;;33.33;30.67;;;;;22.39;68.07;100283.40;110272;1265;18781;-49
2022/06/09 06:58:11;;;;;;;;;38.00;35.67;;;;;22.31;68.38;100290.95;110284;1264;19291;-49
2022/06/09 07:00:38;;;;;;;;;38.00;35.00;;;;;22.23;68.95;100286.93;110292;1265;18849;-50
2022/06/09 07:03:07;;;;;;;;;36.00;31.00;;;;;22.18;69.18;100285.03;110206;1265;18925;-51
2022/06/09 07:05:34;;;;;;;;;35.00;33.67;;;;;21.88;70.23;100281.17;110283;1264;18266;-49
2022/06/09 07:08:03;;;;;;;;;31.50;31.50;;;;;21.70;71.16;100276.25;110281;1265;18499;-49
2022/06/09 07:10:31;;;;;;;;;37.33;30.33;;;;;21.73;71.48;100277.45;110251;1264;21963;-49
2022/06/09 07:12:58;;;;;;;;;37.67;33.67;;;;;21.92;71.01;100274.25;110278;1265;18201;-48
2022/06/09 07:15:25;;;;;;;;;43.33;35.00;;;;;21.98;70.64;100275.39;110269;1264;18540;-51
2022/06/09 07:17:53;;;;;;;;;30.67;29.00;;;;;22.10;70.44;100283.41;110256;1264;18730;-50
2022/06/09 07:20:20;;;;;;;;;40.67;38.33;;;;;22.20;70.20;100286.29;110290;1265;18233;-49
2022/06/09 07:22:47;;;;;;;;;37.50;33.50;;;;;21.90;70.85;100286.94;110144;1265;18658;-48
2022/06/09 07:25:14;;;;;;;;;39.50;34.50;;;;;22.03;70.49;100285.27;110254;1264;19351;-48
2022/06/09 07:27:42;;;;;;;;;38.33;35.33;;;;;22.14;70.24;100283.16;110186;1264;18253;-48
2022/06/09 07:30:09;;;;;;;;;36.33;34.00;;;;;21.98;70.51;100276.15;111967;1265;18814;-48
2022/06/09 07:32:37;;;;;;;;;35.33;30.33;;;;;22.13;70.42;100280.55;110825;1265;18720;-52
2022/06/09 07:35:04;;;;;;;;;34.50;30.00;;;;;22.25;69.76;100281.75;110270;1265;20540;-52
2022/06/09 07:37:31;;;;;;;;;39.33;37.00;;;;;22.24;69.83;100281.52;110193;1264;18524;-49
2022/06/09 07:39:59;;;;;;;;;38.00;32.00;;;;;22.22;69.70;100279.27;110278;1265;19441;-49
2022/06/09 07:42:27;;;;;;;;;37.00;33.67;;;;;22.10;70.06;100276.70;110246;1264;18300;-49
2022/06/09 07:44:54;;;;;;;;;39.00;34.67;;;;;22.08;70.19;100278.81;110254;1265;20211;-49
2022/06/09 07:47:21;;;;;;;;;38.00;34.50;;;;;21.89;70.56;100278.33;110273;1265;18959;-50
2022/06/09 07:49:49;;;;;;;;;42.00;35.33;;;;;21.90;70.88;100276.52;110247;1265;18244;-48
2022/06/09 07:52:17;;;;;;;;;36.33;34.67;;;;;22.11;70.33;100273.71;110231;1264;19146;-49
2022/06/09 07:54:44;;;;;;;;;33.00;30.50;;;;;22.02;70.30;100277.86;110235;1265;18720;-48
2022/06/09 07:57:12;;;;;;;;;34.00;29.67;;;;;22.04;69.98;100277.34;110247;1265;18286;-49
2022/06/09 07:59:39;;;;;;;;;36.00;30.33;;;;;21.95;69.71;100275.11;110235;1264;19007;-49
2022/06/09 08:02:06;;;;;;;;;34.00;30.50;;;;;21.86;69.78;100275.98;110218;1265;18681;-50
2022/06/09 08:04:33;;;;;;;;;29.00;29.00;;;;;22.07;69.25;100274.40;110193;1264;21783;-49
2022/06/09 08:07:02;;;;;;;;;29.00;29.00;;;;;22.35;68.57;100272.41;110224;1265;18973;-49
2022/06/09 08:09:30;;;;;;;;;30.00;29.50;;;;;22.50;67.46;100272.23;110262;1265;20817;-49
2022/06/09 08:11:57;;;;;;;;;27.33;25.33;;;;;22.80;67.83;100271.66;110176;1265;19475;-49
2022/06/09 08:14:24;;;;;;;;;34.67;34.00;;;;;22.96;67.11;100267.20;110188;1265;20085;-48
2022/06/09 08:16:52;;;;;;;;;32.00;31.00;;;;;22.78;66.13;100262.81;110229;1264;18716;-47
2022/06/09 08:19:20;;;;;;;;;35.33;34.00;;;;;22.82;66.08;100261.31;110135;1265;18232;-49
2022/06/09 08:21:47;;;;;;;;;43.33;38.00;;;;;22.88;65.86;100252.77;110254;1265;18581;-49
2022/06/09 08:24:15;;;;;;;;;38.67;37.67;;;;;22.90;65.71;100254.52;110268;1265;18895;-50
2022/06/09 08:26:42;;;;;;;;;37.67;33.00;;;;;22.89;65.67;100251.90;110214;1265;18449;-49
2022/06/09 08:29:10;;;;;;;;;34.00;32.50;;;;;22.94;65.34;100251.59;110209;1265;20837;-48
2022/06/09 08:31:38;;;;;;;;;43.67;40.67;;;;;23.02;65.24;100259.10;110253;1264;18957;-48
2022/06/09 08:34:05;;;;;;;;;46.33;42.33;;;;;22.84;64.51;100255.59;110249;1265;18356;-50
2022/06/09 08:36:32;;;;;;;;;60.67;49.00;;;;;22.74;64.61;100261.02;110282;1264;18573;-48
2022/06/09 08:38:59;;;;;;;;;49.00;43.00;;;;;22.72;64.64;100268.70;110073;1264;18739;-49
2022/06/09 08:41:27;;;;;;;;;57.67;47.00;;;;;22.52;64.85;100268.92;110247;1265;19131;-48
2022/06/09 08:43:55;;;;;;;;;52.50;44.50;;;;;22.56;64.97;100269.87;110283;1264;18691;-49
2022/06/09 08:46:23;;;;;;;;;50.00;43.33;;;;;22.61;64.75;100269.70;110262;1264;18671;-49
2022/06/09 08:48:51;;;;;;;;;48.00;42.50;;;;;22.68;64.79;100277.92;110114;1265;18503;-49
2022/06/09 08:51:18;;;;;;;;;46.00;41.67;;;;;22.72;64.62;100278.77;110088;1264;18489;-49
2022/06/09 08:53:45;;;;;;;;;40.00;37.67;;;;;22.30;65.85;100280.80;110076;1264;18884;-49
2022/06/09 08:56:12;;;;;;;;;41.33;38.00;;;;;22.38;65.88;100280.88;110109;1265;18489;-49
2022/06/09 08:58:40;;;;;;;;;43.00;39.00;;;;;22.38;65.58;100274.70;110140;1265;21623;-49
2022/06/09 09:01:07;;;;;;;;;40.67;38.00;;;;;22.55;65.17;100271.00;110069;1264;21647;-50
2022/06/09 09:03:34;;;;;;;;;41.00;39.00;;;;;22.75;64.64;100274.11;110243;1264;18306;-48
2022/06/09 09:06:04;;;;;;;;;44.67;41.00;;;;;22.83;64.26;100274.74;110243;1265;18571;-49
2022/06/09 09:08:31;;;;;;;;;44.33;39.33;;;;;22.75;64.24;100280.02;110255;1265;19251;-49
2022/06/09 09:10:58;;;;;;;;;40.33;37.33;;;;;22.57;64.41;100279.93;110234;1264;18500;-49
2022/06/09 09:13:26;;;;;;;;;37.00;35.67;;;;;22.58;64.52;100284.84;110241;1265;18848;-49
2022/06/09 09:15:53;;;;;;;;;40.67;32.00;;;;;22.02;65.75;100289.71;110280;1264;18691;-49
2022/06/09 09:18:21;;;;;;;;;29.67;29.00;;;;;21.76;66.45;100288.35;110260;1265;18330;-52
2022/06/09 09:20:48;;;;;;;;;32.33;30.33;;;;;22.10;66.03;100288.27;110261;1264;22358;-47
2022/06/09 09:23:15;;;;;;;;;27.00;25.67;;;;;22.39;65.12;100292.65;110177;1264;20978;-50
2022/06/09 09:25:42;;;;;;;;;29.00;27.00;;;;;22.60;64.33;100285.91;110082;1265;18383;-48
2022/06/09 09:28:10;;;;;;;;;32.50;30.50;;;;;22.78;63.67;100291.23;110104;1265;19625;-50
2022/06/09 09:30:37;;;;;;;;;34.67;34.00;;;;;22.90;63.17;100284.17;110133;1265;18757;-49
2022/06/09 09:33:04;;;;;;;;;34.67;32.00;;;;;22.95;62.66;100282.86;110236;1264;18171;-48
2022/06/09 09:35:32;;;;;;;;;38.00;33.67;;;;;22.70;63.24;100284.58;110186;1265;18889;-53
2022/06/09 09:37:59;;;;;;;;;31.00;28.00;;;;;22.75;63.25;100289.03;110189;1264;21625;-51
2022/06/09 09:40:26;;;;;;;;;30.67;30.33;;;;;22.87;63.02;100286.80;110191;1264;18222;-52
2022/06/09 09:42:54;;;;;;;;;34.50;29.50;;;;;22.98;62.96;100289.18;110253;1265;20211;-48
2022/06/09 09:45:21;;;;;;;;;31.33;30.00;;;;;23.11;62.34;100290.73;110293;1264;20284;-48
2022/06/09 09:47:48;;;;;;;;;32.00;31.00;;;;;23.14;62.18;100293.69;110274;1264;19350;-49
2022/06/09 09:50:16;;;;;;;;;33.00;30.67;;;;;23.11;62.54;100296.74;110120;1265;20606;-52
2022/06/09 09:52:43;;;;;;;;;28.67;26.00;;;;;23.10;62.74;100300.47;110222;1265;18835;-48
2022/06/09 09:55:10;;;;;;;;;34.00;30.33;;;;;23.00;62.65;100300.42;110255;1265;18524;-50
2022/06/09 09:57:37;;;;;;;;;39.67;34.67;;;;;22.86;62.59;100298.23;110162;1266;19222;-50
2022/06/09 10:00:05;;;;;;;;;34.33;32.67;;;;;22.59;62.76;100298.04;110234;1264;19245;-49
2022/06/09 10:10:49;;;;;;;;;46.67;42.33;;;;;22.79;62.52;100296.96;109563;1269;18568;-49
2022/06/09 10:13:16;;;;;;;;;49.33;42.00;;;;;22.69;62.78;100296.55;109606;1268;21277;-47
2022/06/09 10:15:43;;;;;;;;;45.00;40.33;;;;;22.60;63.42;100292.50;109646;1268;19006;-47
2022/06/09 10:18:11;;;;;;;;;50.00;44.00;;;;;22.80;62.85;100296.58;109543;1268;18232;-49
2022/06/09 10:20:38;;;;;;;;;48.00;41.00;;;;;22.89;62.87;100298.59;109639;1268;18961;-49
2022/06/09 10:23:05;;;;;;;;;41.67;38.67;;;;;22.89;63.20;100304.35;109669;1268;19234;-50
2022/06/09 10:25:33;;;;;;;;;51.67;42.00;;;;;23.02;62.95;100297.78;109645;1268;18274;-50
2022/06/09 10:28:00;;;;;;;;;49.00;43.00;;;;;23.16;63.73;100297.44;109637;1268;18550;-48
2022/06/09 10:30:28;;;;;;;;;47.00;43.00;;;;;23.32;64.02;100293.67;109378;1268;18734;-49
2022/06/09 10:32:55;;;;;;;;;46.67;41.00;;;;;23.40;64.37;100292.77;109467;1268;18282;-51
2022/06/09 10:35:22;;;;;;;;;48.00;42.33;;;;;23.39;64.63;100290.12;109535;1269;19419;-49
2022/06/09 10:37:50;;;;;;;;;48.00;41.00;;;;;23.39;65.00;100285.16;109563;1269;21548;-48
2022/06/09 10:40:17;;;;;;;;;51.00;42.00;;;;;23.36;64.40;100290.11;109604;1268;18222;-50
2022/06/09 10:42:45;;;;;;;;;47.67;42.00;;;;;23.09;64.66;100289.29;109453;1271;18697;-50
2022/06/09 10:45:12;;;;;;;;;48.00;42.00;;;;;23.19;65.03;100286.90;109519;1271;18757;-50
2022/06/09 10:55:54;;;;;;;;;41.50;38.00;;;;;23.60;64.19;100286.02;110236;1264;18364;-51
2022/06/09 10:58:22;;;;;;;;;45.67;40.67;;;;;23.59;64.21;100285.21;110282;1264;18728;-49
2022/06/09 11:00:49;;;;;;;;;40.00;38.00;;;;;23.57;64.57;100285.47;110237;1265;21785;-49
2022/06/09 11:03:16;;;;;;;;;45.67;38.33;;;;;23.59;64.71;100288.42;110216;1265;20693;-52
2022/06/09 11:05:44;;;;;;;;;40.67;37.33;;;;;23.61;64.84;100291.13;110121;1264;19274;-52
2022/06/09 11:08:11;;;;;;;;;46.00;39.67;;;;;23.61;64.96;100291.84;110266;1265;18798;-49
2022/06/09 11:10:38;;;;;;;;;39.33;38.00;;;;;23.61;64.96;100290.50;110182;1265;18502;-49
2022/06/09 11:13:06;;;;;;;;;42.00;38.33;;;;;23.64;64.74;100295.28;110185;1265;18661;-51
2022/06/09 11:15:33;;;;;;;;;43.67;40.67;;;;;23.65;64.97;100291.16;110307;1265;18730;-50
2022/06/09 11:18:00;;;;;;;;;46.00;40.33;;;;;23.64;64.91;100291.14;110199;1265;18351;-49
2022/06/09 11:20:28;;;;;;;;;42.67;40.33;;;;;23.66;64.90;100283.20;110243;1265;18862;-48
2022/06/09 11:22:55;;;;;;;;;41.00;37.50;;;;;23.67;64.75;100282.15;110083;1264;20878;-47
2022/06/09 11:25:22;;;;;;;;;47.00;42.00;;;;;23.64;64.40;100281.55;110198;1265;21759;-49
2022/06/09 11:27:49;;;;;;;;;47.00;42.00;;;;;23.56;64.27;100282.90;110202;1265;18868;-49